Time;durP1;ratioP1;P1;durP2;ratioP2;P2;SDS_P1;SDS_P2;PMS_P1;PMS_P2;Temp;Humidity;BMP_temperature;BMP_pressure;BME280_temperature;BME280_humidity;BME280_pressure;Samples;Min_cycle;Max_cycle;Signal;HPM_P1;HPM_P2
2023/01/20 00:00:12;;;;;;;3.80;2.70;;;;;;;15.65;100.00;149971.44;5072236;28;20191;-61
2023/01/20 00:02:39;;;;;;;4.50;2.90;;;;;;;15.70;100.00;149982.84;5071556;28;20204;-62
2023/01/20 00:05:07;;;;;;;3.03;2.83;;;;;;;15.73;100.00;149990.47;5071622;28;20283;-61
2023/01/20 00:07:34;;;;;;;3.70;3.20;;;;;;;15.72;100.00;149989.19;5071750;28;20207;-61
2023/01/20 00:10:01;;;;;;;3.47;3.37;;;;;;;15.74;100.00;149994.25;5071849;28;20556;-61
2023/01/20 00:12:30;;;;;;;5.73;3.43;;;;;;;15.82;100.00;150014.59;5071780;28;20200;-61
2023/01/20 00:14:57;;;;;;;3.57;3.27;;;;;;;15.89;100.00;150032.34;5071751;28;20654;-62
2023/01/20 00:17:25;;;;;;;3.77;3.47;;;;;;;15.87;100.00;150026.03;5071488;28;20195;-61
2023/01/20 00:19:52;;;;;;;9.27;3.67;;;;;;;15.92;100.00;150038.66;5071768;28;20555;-61
2023/01/20 00:22:20;;;;;;;3.13;2.93;;;;;;;15.91;100.00;150037.41;5071218;28;20181;-62
2023/01/20 00:24:47;;;;;;;3.67;3.17;;;;;;;15.99;100.00;150057.75;5071352;28;20185;-60
2023/01/20 00:27:15;;;;;;;3.63;3.33;;;;;;;16.03;100.00;150065.34;5071138;28;20191;-61
2023/01/20 00:29:43;;;;;;;3.07;2.87;;;;;;;16.09;100.00;150080.56;5071404;28;20196;-61
2023/01/20 00:32:10;;;;;;;3.87;3.40;;;;;;;16.04;100.00;150069.13;5071686;28;20636;-62
2023/01/20 00:34:38;;;;;;;8.27;3.30;;;;;;;15.93;100.00;150042.50;5071305;28;20228;-60
2023/01/20 00:37:05;;;;;;;3.50;3.10;;;;;;;16.05;100.00;150070.41;5071228;28;20238;-61
2023/01/20 00:39:32;;;;;;;3.53;3.23;;;;;;;15.87;100.00;150027.25;5053314;28;20196;-61
2023/01/20 00:41:59;;;;;;;3.53;3.33;;;;;;;15.95;100.00;150047.56;5071671;28;20662;-62
2023/01/20 00:44:26;;;;;;;3.60;3.30;;;;;;;15.94;100.00;150045.03;5071120;28;20208;-66
2023/01/20 00:46:53;;;;;;;3.83;3.53;;;;;;;16.00;100.00;150060.25;5071042;28;20563;-61
2023/01/20 00:49:19;;;;;;;3.83;3.53;;;;;;;15.99;100.00;150056.47;5071228;28;20184;-62
2023/01/20 00:51:48;;;;;;;3.93;3.63;;;;;;;15.96;100.00;150048.81;5071294;28;20216;-62
2023/01/20 00:54:14;;;;;;;5.73;3.90;;;;;;;15.83;100.00;150017.09;5071132;28;20184;-63
2023/01/20 00:56:41;;;;;;;6.13;4.10;;;;;;;15.66;100.00;149972.72;5071136;28;20200;-61
2023/01/20 00:59:09;;;;;;;4.00;3.70;;;;;;;15.89;100.00;150032.34;5071242;28;20189;-61
2023/01/20 01:01:36;;;;;;;4.47;4.07;;;;;;;15.72;100.00;149989.19;5071112;28;20189;-61
2023/01/20 01:04:03;;;;;;;4.80;3.67;;;;;;;15.81;100.00;150012.03;5071318;28;20216;-60
2023/01/20 01:06:29;;;;;;;3.90;3.60;;;;;;;15.83;100.00;150017.09;5071239;28;20551;-61
2023/01/20 01:08:58;;;;;;;5.17;3.80;;;;;;;15.89;100.00;150032.34;5071111;28;20189;-60
2023/01/20 01:11:25;;;;;;;6.20;3.63;;;;;;;15.74;100.00;149994.25;5070805;28;20196;-61
2023/01/20 01:13:51;;;;;;;5.43;3.90;;;;;;;15.87;100.00;150026.03;5071269;28;20520;-61
2023/01/20 01:16:19;;;;;;;4.30;3.97;;;;;;;15.81;100.00;150012.03;5071198;28;20180;-61
2023/01/20 01:18:45;;;;;;;3.83;3.60;;;;;;;15.81;100.00;150010.75;5071031;28;20193;-61
2023/01/20 01:21:15;;;;;;;4.00;3.70;;;;;;;15.70;100.00;149984.09;5070892;28;20181;-62
2023/01/20 01:23:42;;;;;;;5.10;4.10;;;;;;;15.72;100.00;149989.19;5071143;28;20219;-61
2023/01/20 01:26:10;;;;;;;4.17;3.83;;;;;;;15.68;100.00;149977.75;5071038;28;20690;-61
2023/01/20 01:28:37;;;;;;;7.87;4.20;;;;;;;15.50;100.00;149933.34;5071073;28;20193;-61
2023/01/20 01:31:07;;;;;;;7.13;4.00;;;;;;;15.47;100.00;149925.69;5071107;28;20532;-61
2023/01/20 01:33:34;;;;;;;5.37;3.73;;;;;;;15.38;100.00;149902.84;5070868;28;20196;-61
2023/01/20 01:36:03;;;;;;;3.77;3.50;;;;;;;15.48;100.00;149929.50;5070767;28;20614;-61
2023/01/20 01:38:30;;;;;;;4.30;4.00;;;;;;;15.50;100.00;149933.34;5071021;28;20590;-61
2023/01/20 01:40:57;;;;;;;5.13;4.67;;;;;;;15.33;100.00;149891.44;5074530;28;20559;-61
2023/01/20 01:43:26;;;;;;;5.60;4.17;;;;;;;15.47;100.00;149925.69;5074631;28;20215;-60
2023/01/20 01:45:53;;;;;;;5.20;4.73;;;;;;;15.29;100.00;149881.28;5074777;28;20185;-61
2023/01/20 01:48:23;;;;;;;8.73;6.30;;;;;;;14.46;100.00;149673.31;5074328;28;20191;-62
2023/01/20 01:50:54;;;;;;;7.80;6.63;;;;;;;14.26;100.00;149622.50;5074480;28;20523;-61
2023/01/20 01:53:21;;;;;;;8.60;6.40;;;;;;;14.21;100.00;149608.59;5073931;28;20180;-60
2023/01/20 01:55:54;;;;;;;7.53;6.83;;;;;;;14.00;100.00;149557.84;5074315;28;20189;-60
2023/01/20 01:58:28;;;;;;;7.47;6.87;;;;;;;13.70;100.00;149483.13;5074498;28;20218;-62
2023/01/20 02:00:54;;;;;;;7.27;6.67;;;;;;;13.60;100.00;149456.50;5074060;28;20211;-61
2023/01/20 02:03:22;;;;;;;7.80;6.87;;;;;;;13.52;100.00;149437.50;5074064;28;20215;-62
2023/01/20 02:05:52;;;;;;;7.37;6.87;;;;;;;13.49;100.00;149428.63;5073883;28;20196;-61
2023/01/20 02:08:20;;;;;;;7.37;6.87;;;;;;;13.41;100.00;149409.59;5074182;28;20260;-62
2023/01/20 02:10:46;;;;;;;7.50;6.87;;;;;;;13.49;100.00;149428.63;5074071;28;20195;-61
2023/01/20 02:13:13;;;;;;;10.17;6.50;;;;;;;13.25;100.00;149370.34;5074002;28;20548;-61
2023/01/20 02:15:49;;;;;;;6.73;6.40;;;;;;;13.43;100.00;149413.41;5074016;28;20551;-61
2023/01/20 02:18:27;;;;;;;8.07;6.07;;;;;;;13.25;100.00;149370.34;5073871;28;20554;-61
2023/01/20 02:21:20;;;;;;;10.03;6.60;;;;;;;13.27;100.00;149375.44;5073754;28;20566;-61
2023/01/20 02:24:35;;;;;;;7.47;6.90;;;;;;;13.40;100.00;149405.81;5032725;28;20250;-61
2023/01/20 02:27:09;;;;;;;7.20;6.80;;;;;;;13.19;100.00;149355.16;5073502;28;20188;-61
2023/01/20 02:30:01;;;;;;;9.30;7.40;;;;;;;13.25;100.00;149370.34;5073531;28;20275;-62
2023/01/20 02:32:41;;;;;;;8.20;7.40;;;;;;;13.22;100.00;149362.75;5073558;28;20211;-61
2023/01/20 02:35:11;;;;;;;7.97;7.40;;;;;;;13.21;100.00;149360.22;5073326;28;20228;-60
2023/01/20 02:37:46;;;;;;;8.33;6.90;;;;;;;13.00;100.00;149306.97;5073293;28;20249;-61
2023/01/20 02:40:25;;;;;;;8.40;7.60;;;;;;;13.02;100.00;149312.06;5073258;28;20196;-61
2023/01/20 02:43:01;;;;;;;7.73;7.33;;;;;;;12.96;100.00;149295.56;5073052;28;20192;-61
2023/01/20 02:45:35;;;;;;;8.67;7.97;;;;;;;13.00;100.00;149306.97;5073150;28;20218;-61
2023/01/20 02:48:09;;;;;;;8.83;7.60;;;;;;;13.02;100.00;149312.06;5072981;28;20208;-61
2023/01/20 02:50:40;;;;;;;8.70;7.47;;;;;;;13.00;100.00;149305.69;5072146;28;20200;-61
2023/01/20 02:53:09;;;;;;;8.63;7.83;;;;;;;13.10;100.00;149331.03;5072915;28;20189;-61
2023/01/20 02:55:40;;;;;;;13.23;8.17;;;;;;;12.89;100.00;149277.84;5073036;28;20184;-61
2023/01/20 02:58:13;;;;;;;8.73;7.47;;;;;;;12.99;100.00;149303.16;5073264;28;20185;-61
2023/01/20 03:00:44;;;;;;;8.90;8.10;;;;;;;13.04;100.00;149315.81;5073147;28;20632;-61
2023/01/20 03:03:17;;;;;;;7.70;7.07;;;;;;;12.99;100.00;149304.41;5073040;28;20223;-62
2023/01/20 03:05:49;;;;;;;8.93;7.73;;;;;;;13.02;100.00;149310.78;5072636;28;20192;-62
2023/01/20 03:08:17;;;;;;;8.90;8.03;;;;;;;12.90;100.00;149281.63;5072946;28;20185;-60
2023/01/20 03:10:47;;;;;;;8.50;7.97;;;;;;;13.01;100.00;149308.25;5072572;28;20195;-61
2023/01/20 03:13:20;;;;;;;8.67;8.17;;;;;;;12.95;100.00;149293.03;5072766;28;20623;-61
2023/01/20 03:15:57;;;;;;;8.43;7.83;;;;;;;12.83;100.00;149265.19;5071945;28;20579;-61
2023/01/20 03:18:28;;;;;;;9.20;8.30;;;;;;;12.85;100.00;149267.72;5072402;28;20276;-62
2023/01/20 03:20:55;;;;;;;10.80;8.53;;;;;;;12.92;100.00;149286.72;5072672;28;20529;-61
2023/01/20 03:23:22;;;;;;;11.50;8.27;;;;;;;12.65;100.00;149218.31;5072249;28;20216;-60
2023/01/20 03:25:50;;;;;;;8.40;7.90;;;;;;;12.80;100.00;149256.31;5072546;28;20508;-61
2023/01/20 03:28:17;;;;;;;8.87;8.37;;;;;;;12.76;100.00;149247.47;5072547;28;20247;-61
2023/01/20 03:30:44;;;;;;;9.27;8.77;;;;;;;12.85;100.00;149269.00;5072508;28;20536;-61
2023/01/20 03:33:13;;;;;;;10.50;8.73;;;;;;;12.87;100.00;149272.75;5072210;28;20204;-61
2023/01/20 03:35:42;;;;;;;9.73;8.80;;;;;;;12.75;100.00;149243.66;5072021;28;20236;-61
2023/01/20 03:38:10;;;;;;;11.90;9.03;;;;;;;12.80;100.00;148029.25;5072357;28;20192;-61
2023/01/20 03:40:42;;;;;;;10.90;10.07;;;;;;;12.73;100.00;143991.22;5072033;28;20193;-60
2023/01/20 03:43:16;;;;;;;10.67;9.40;;;;;;;12.67;100.00;134709.50;5072198;28;20189;-61
2023/01/20 03:45:55;;;;;;;10.47;9.57;;;;;;;12.59;100.00;131566.34;5072153;28;20188;-61
2023/01/20 03:48:31;;;;;;;11.07;9.80;;;;;;;12.73;100.00;129308.31;5072286;28;20184;-60
2023/01/20 03:51:08;;;;;;;10.90;10.07;;;;;;;12.66;100.00;124061.44;5071854;28;20195;-60
2023/01/20 03:53:44;;;;;;;10.40;9.50;;;;;;;12.62;100.00;121140.84;5072136;28;20654;-61
2023/01/20 03:56:18;;;;;;;11.30;10.17;;;;;;;12.56;100.00;112066.66;5071766;28;20279;-62
2023/01/20 03:58:48;;;;;;;11.10;9.83;;;;;;;12.51;100.00;111891.50;5071697;28;20181;-60
2023/01/20 04:01:19;;;;;;;11.07;10.00;;;;;;;12.50;100.00;108718.09;5071783;28;20195;-62
2023/01/20 04:03:48;;;;;;;11.83;10.83;;;;;;;12.45;100.00;103345.50;5071375;28;20204;-61
2023/01/20 04:06:18;;;;;;;10.93;9.97;;;;;;;12.52;100.00;102007.81;5071575;28;20192;-62
2023/01/20 04:08:51;;;;;;;11.23;10.30;;;;;;;12.54;100.00;103580.81;5071865;28;20600;-62
2023/01/20 04:11:18;;;;;;;11.17;10.50;;;;;;;12.52;100.00;102382.06;5071862;28;20680;-60
2023/01/20 04:13:45;;;;;;;11.67;10.47;;;;;;;12.49;100.00;99684.19;5071733;28;20203;-62
2023/01/20 04:16:15;;;;;;;11.23;10.17;;;;;;;12.48;100.00;98596.06;5071525;28;20181;-61
2023/01/20 04:18:45;;;;;;;11.40;10.33;;;;;;;12.14;100.00;99044.84;5072062;28;20647;-61
2023/01/20 04:21:20;;;;;;;12.03;10.90;;;;;;;12.57;100.00;100316.00;5071635;28;20559;-62
2023/01/20 04:23:52;;;;;;;12.50;11.30;;;;;;;12.65;100.00;103925.59;5071785;28;20200;-62
2023/01/20 04:26:19;;;;;;;12.53;11.40;;;;;;;12.68;100.00;107626.44;5071688;28;20600;-62
2023/01/20 04:28:46;;;;;;;15.50;11.43;;;;;;;12.64;100.00;107880.28;5071711;28;20662;-61
2023/01/20 04:31:13;;;;;;;10.90;10.00;;;;;;;12.66;100.00;108576.97;5071377;28;20534;-61
2023/01/20 04:33:41;;;;;;;9.57;8.77;;;;;;;12.65;100.00;115586.59;5071616;28;20326;-61
2023/01/20 04:36:08;;;;;;;10.33;9.40;;;;;;;12.74;100.00;127306.53;5071157;28;20248;-60
2023/01/20 04:38:36;;;;;;;10.03;9.13;;;;;;;12.81;100.00;134353.22;5071197;28;20195;-61
2023/01/20 04:41:03;;;;;;;10.10;9.17;;;;;;;12.98;100.00;140037.25;5071385;28;20180;-61
2023/01/20 04:43:30;;;;;;;10.63;9.57;;;;;;;13.09;100.00;144951.19;5071228;28;20628;-61
2023/01/20 04:45:57;;;;;;;12.93;9.37;;;;;;;12.98;100.00;143806.63;5071497;28;20647;-62
2023/01/20 04:48:24;;;;;;;10.80;9.87;;;;;;;12.99;100.00;147333.91;5071109;28;20196;-60
2023/01/20 04:50:50;;;;;;;14.93;9.27;;;;;;;12.87;100.00;145621.19;5071218;28;20632;-61
2023/01/20 04:53:18;;;;;;;10.70;9.83;;;;;;;12.98;100.00;147896.56;5071283;28;20223;-61
2023/01/20 04:55:46;;;;;;;10.77;9.57;;;;;;;13.02;100.00;149141.91;5071374;28;20272;-61
2023/01/20 04:58:13;;;;;;;10.37;9.47;;;;;;;13.06;100.00;149320.91;5071395;28;20614;-61
2023/01/20 05:00:40;;;;;;;10.87;9.87;;;;;;;13.15;100.00;149343.75;5071192;28;20653;-62
2023/01/20 05:03:07;;;;;;;10.47;9.50;;;;;;;13.01;100.00;149308.25;5071136;28;20196;-62
2023/01/20 05:05:34;;;;;;;10.33;9.47;;;;;;;13.08;100.00;149327.22;5070941;28;20208;-61
2023/01/20 05:08:03;;;;;;;15.20;10.00;;;;;;;13.10;100.00;149332.38;5071371;28;20714;-61
2023/01/20 05:10:31;;;;;;;9.87;9.10;;;;;;;13.11;100.00;149334.84;5071339;28;20242;-61
2023/01/20 05:13:00;;;;;;;13.30;9.23;;;;;;;13.07;100.00;149324.69;5071202;28;20621;-61
2023/01/20 05:15:28;;;;;;;10.03;9.27;;;;;;;12.88;100.00;148682.53;5074305;28;20557;-60
2023/01/20 05:17:54;;;;;;;12.83;9.87;;;;;;;13.04;100.00;147118.78;5075018;28;20189;-62
2023/01/20 05:20:21;;;;;;;11.37;9.77;;;;;;;12.84;100.00;145868.63;5074505;28;20181;-62
2023/01/20 05:22:48;;;;;;;9.40;8.77;;;;;;;12.98;100.00;147161.38;5074496;28;20197;-62
2023/01/20 05:25:15;;;;;;;14.40;10.30;;;;;;;13.00;100.00;149306.97;5074854;28;20578;-61
2023/01/20 05:27:43;;;;;;;14.00;10.10;;;;;;;13.06;100.00;149322.19;5074501;28;20232;-61
2023/01/20 05:30:12;;;;;;;13.47;9.37;;;;;;;13.05;100.00;149319.63;5074669;28;20646;-61
2023/01/20 05:32:39;;;;;;;11.73;9.47;;;;;;;13.01;100.00;149308.25;5074514;28;20196;-62
2023/01/20 05:35:07;;;;;;;10.67;9.60;;;;;;;13.22;100.00;149361.47;5073984;28;20323;-62
2023/01/20 05:37:34;;;;;;;10.90;10.13;;;;;;;13.17;100.00;149348.81;5074561;28;20196;-61
2023/01/20 05:40:01;;;;;;;10.83;9.80;;;;;;;13.17;100.00;149350.06;5074303;28;20287;-61
2023/01/20 05:42:46;;;;;;;11.03;9.87;;;;;;;13.12;100.00;149337.41;5033717;28;20307;-61
2023/01/20 05:45:14;;;;;;;11.60;9.87;;;;;;;13.21;100.00;149360.22;5074407;28;20319;-61
2023/01/20 05:47:41;;;;;;;10.57;9.87;;;;;;;13.16;100.00;149346.25;5073875;28;20188;-62
2023/01/20 05:50:09;;;;;;;12.00;10.73;;;;;;;13.24;100.00;149367.78;5073948;28;20195;-61
2023/01/20 05:52:36;;;;;;;11.10;10.10;;;;;;;13.36;100.00;149396.97;5074246;28;20204;-61
2023/01/20 05:55:04;;;;;;;13.00;9.43;;;;;;;13.38;100.00;149402.00;5074312;28;20278;-61
2023/01/20 05:57:30;;;;;;;14.60;10.53;;;;;;;13.36;100.00;149396.97;5073890;28;20192;-62
2023/01/20 05:59:57;;;;;;;10.63;9.63;;;;;;;13.42;100.00;149412.13;5073934;28;20185;-61
2023/01/20 06:02:26;;;;;;;11.43;10.20;;;;;;;13.37;100.00;149398.19;5073859;28;20568;-61
2023/01/20 06:04:54;;;;;;;11.80;10.20;;;;;;;13.43;100.00;149414.69;5073571;28;20208;-61
2023/01/20 06:07:21;;;;;;;11.83;10.83;;;;;;;13.53;100.00;149438.78;5073934;28;20231;-58
2023/01/20 06:09:48;;;;;;;13.63;11.60;;;;;;;13.42;100.00;149410.88;5074153;28;20200;-62
2023/01/20 06:12:15;;;;;;;22.30;11.37;;;;;;;13.62;100.00;149461.59;5073637;28;20187;-61
2023/01/20 06:14:42;;;;;;;20.90;12.17;;;;;;;13.60;100.00;149456.50;5073511;28;20189;-61
2023/01/20 06:17:09;;;;;;;19.23;11.10;;;;;;;13.60;100.00;149456.50;5073724;28;20192;-61
2023/01/20 06:19:37;;;;;;;12.53;10.67;;;;;;;13.41;100.00;149409.59;5073359;28;20239;-62
2023/01/20 06:22:05;;;;;;;12.57;10.97;;;;;;;13.34;100.00;149390.59;5073551;28;20539;-61
2023/01/20 06:24:32;;;;;;;11.60;9.60;;;;;;;13.55;100.00;149443.81;5072848;28;20215;-60
2023/01/20 06:26:58;;;;;;;13.17;10.87;;;;;;;13.52;100.00;149437.50;5073296;28;20196;-62
2023/01/20 06:29:25;;;;;;;15.40;10.60;;;;;;;13.54;100.00;149441.28;5073451;28;20262;-61
2023/01/20 06:31:53;;;;;;;20.33;9.63;;;;;;;13.55;100.00;149443.81;5073289;28;20185;-62
2023/01/20 06:34:20;;;;;;;11.50;9.03;;;;;;;13.61;100.00;149459.03;5073631;28;20418;-60
2023/01/20 06:36:48;;;;;;;9.37;8.43;;;;;;;13.62;100.00;149462.81;5073880;28;20189;-59
2023/01/20 06:39:15;;;;;;;16.33;9.13;;;;;;;13.67;100.00;149474.22;5073442;28;20204;-59
2023/01/20 06:41:42;;;;;;;11.93;9.33;;;;;;;13.73;100.00;149489.44;5073191;28;20216;-59
2023/01/20 06:44:09;;;;;;;11.33;8.47;;;;;;;13.75;100.00;149494.47;5073359;28;20555;-59
2023/01/20 06:46:36;;;;;;;10.40;8.27;;;;;;;13.79;100.00;149504.63;5072849;28;20185;-60
2023/01/20 06:49:03;;;;;;;7.77;7.27;;;;;;;13.93;100.00;149538.84;5073373;28;20211;-58
2023/01/20 06:51:32;;;;;;;9.00;8.03;;;;;;;14.00;100.00;149557.84;5073051;28;20192;-59
2023/01/20 06:54:00;;;;;;;8.40;7.53;;;;;;;14.06;100.00;149573.09;5073076;28;20263;-59
2023/01/20 06:56:27;;;;;;;8.27;7.50;;;;;;;14.01;100.00;149560.41;5072914;28;20556;-61
2023/01/20 06:58:54;;;;;;;9.60;7.97;;;;;;;13.96;100.00;149547.72;5072710;28;20627;-61
2023/01/20 07:01:25;;;;;;;8.77;7.90;;;;;;;13.94;100.00;149542.66;5072330;28;20188;-61
2023/01/20 07:03:52;;;;;;;11.30;8.33;;;;;;;14.00;100.00;149556.63;5072608;28;20684;-61
2023/01/20 07:06:26;;;;;;;9.83;8.23;;;;;;;14.07;100.00;149574.34;5072342;28;20209;-61
2023/01/20 07:08:54;;;;;;;8.17;7.33;;;;;;;14.15;100.00;149595.91;5072678;28;20184;-60
2023/01/20 07:11:22;;;;;;;9.33;7.90;;;;;;;14.12;100.00;149588.31;5053729;28;20200;-61
2023/01/20 07:13:49;;;;;;;12.07;8.60;;;;;;;14.25;100.00;149618.72;5052492;28;20192;-60
2023/01/20 07:16:16;;;;;;;10.63;8.40;;;;;;;14.26;100.00;149621.28;5052476;28;20185;-62
2023/01/20 07:18:44;;;;;;;12.23;8.53;;;;;;;14.25;100.00;149618.72;5052411;28;20193;-60
2023/01/20 07:21:12;;;;;;;9.47;8.50;;;;;;;14.40;100.00;149656.78;5052392;28;20565;-61
2023/01/20 07:23:39;;;;;;;11.53;9.13;;;;;;;14.45;100.00;149670.75;5051953;28;20185;-62
2023/01/20 07:26:07;;;;;;;10.13;8.60;;;;;;;14.45;100.00;149669.47;5052311;28;20212;-61
2023/01/20 07:28:36;;;;;;;9.60;8.73;;;;;;;14.61;100.00;149710.03;5051941;28;20185;-60
2023/01/20 07:31:04;;;;;;;10.07;7.57;;;;;;;14.68;100.00;149727.81;5052165;28;20501;-61
2023/01/20 07:33:31;;;;;;;23.67;7.93;;;;;;;14.70;100.00;149732.88;5052530;28;20279;-62
2023/01/20 07:36:00;;;;;;;9.10;8.20;;;;;;;14.92;100.00;149787.41;5051631;28;20232;-62
2023/01/20 07:38:26;;;;;;;8.20;7.60;;;;;;;14.85;100.00;149770.91;5051226;28;20189;-62
2023/01/20 07:40:56;;;;;;;17.43;7.83;;;;;;;14.96;100.00;149798.84;5052206;28;20642;-62
2023/01/20 07:43:23;;;;;;;12.37;6.97;;;;;;;14.92;100.00;149787.41;5051842;28;20200;-61
2023/01/20 07:45:55;;;;;;;10.13;6.83;;;;;;;15.02;100.00;149814.03;5066539;28;20216;-61
2023/01/20 07:48:21;;;;;;;8.83;6.33;;;;;;;15.13;100.00;149839.41;5071699;28;20177;-62
2023/01/20 07:50:48;;;;;;;7.17;6.30;;;;;;;15.32;100.00;149888.88;5072041;28;20537;-61
2023/01/20 07:53:16;;;;;;;6.60;6.00;;;;;;;15.48;100.00;149928.25;5071844;28;20544;-61
2023/01/20 07:55:43;;;;;;;11.23;6.60;;;;;;;15.54;100.00;149943.50;5071102;28;20177;-61
2023/01/20 07:58:11;;;;;;;8.53;5.57;;;;;;;15.60;100.00;149958.72;5054082;28;20632;-61
2023/01/20 08:00:37;;;;;;;6.40;5.80;;;;;;;15.69;100.00;149980.31;5071628;28;20216;-62
2023/01/20 08:03:06;;;;;;;7.03;5.23;;;;;;;15.77;100.00;150001.88;5070755;28;20686;-61
2023/01/20 08:05:33;;;;;;;6.93;6.27;;;;;;;15.80;100.00;150008.22;5071189;28;20307;-62
2023/01/20 08:08:00;;;;;;;11.10;5.93;;;;;;;15.87;100.00;150026.03;5071730;28;20192;-62
2023/01/20 08:10:27;;;;;;;5.93;5.53;;;;;;;15.78;100.00;150004.44;5071126;28;20185;-61
2023/01/20 08:12:54;;;;;;;6.53;6.10;;;;;;;15.71;100.00;149985.38;5071528;28;20605;-62
2023/01/20 08:15:21;;;;;;;7.70;6.00;;;;;;;15.80;100.00;150009.50;5071159;28;20204;-61
2023/01/20 08:17:53;;;;;;;7.97;5.80;;;;;;;15.85;100.00;150020.91;5071227;28;20192;-62
2023/01/20 08:20:21;;;;;;;7.73;6.07;;;;;;;15.95;100.00;150047.56;5070938;28;20191;-63
2023/01/20 08:22:49;;;;;;;11.63;6.20;;;;;;;15.88;100.00;150029.78;5070615;28;20232;-62
2023/01/20 08:25:16;;;;;;;6.77;5.97;;;;;;;16.06;100.00;150074.22;5070554;28;20204;-61
2023/01/20 08:27:42;;;;;;;6.80;6.20;;;;;;;16.10;100.00;150084.38;5070863;28;20185;-61
2023/01/20 08:30:11;;;;;;;6.33;5.80;;;;;;;16.14;100.00;150093.25;5070916;28;20204;-62
2023/01/20 08:32:37;;;;;;;7.43;6.80;;;;;;;15.98;100.00;150055.19;5070629;28;20196;-61
2023/01/20 08:35:05;;;;;;;17.73;6.43;;;;;;;16.05;100.00;150070.41;5070780;28;20737;-63
2023/01/20 08:37:35;;;;;;;9.13;6.17;;;;;;;16.05;100.00;150070.41;5071087;28;20199;-61
2023/01/20 08:40:02;;;;;;;9.70;6.80;;;;;;;15.93;100.00;150042.50;5070914;28;20207;-61
2023/01/20 08:42:29;;;;;;;10.50;6.93;;;;;;;16.07;100.00;150075.50;5071149;28;20196;-62
2023/01/20 08:44:56;;;;;;;7.47;6.80;;;;;;;16.36;100.00;150149.13;5071001;28;20202;-61
2023/01/20 08:47:23;;;;;;;16.63;7.03;;;;;;;16.43;100.00;150166.91;5070817;28;20189;-61
2023/01/20 08:49:53;;;;;;;10.50;6.20;;;;;;;16.38;100.00;150154.19;5075069;28;20555;-62
2023/01/20 08:52:20;;;;;;;6.23;5.70;;;;;;;16.40;100.00;150159.28;5075226;28;20203;-62
2023/01/20 08:54:51;;;;;;;10.77;5.63;;;;;;;16.44;100.00;150169.44;5057145;28;20275;-61
2023/01/20 08:57:18;;;;;;;12.33;5.27;;;;;;;16.37;100.00;150151.69;5074823;28;20188;-61
2023/01/20 08:59:46;;;;;;;12.70;5.50;;;;;;;16.26;100.00;150123.72;5074838;28;20211;-61
2023/01/20 09:02:13;;;;;;;8.40;5.83;;;;;;;16.42;100.00;150165.63;5074720;28;20188;-61
2023/01/20 09:04:40;;;;;;;5.37;4.87;;;;;;;16.68;100.00;150230.44;5074446;28;20211;-61
2023/01/20 09:07:07;;;;;;;5.47;4.97;;;;;;;16.65;100.00;150222.81;5074502;28;20204;-62
2023/01/20 09:09:35;;;;;;;6.30;5.47;;;;;;;16.66;100.00;150224.09;5074426;28;20192;-61
2023/01/20 09:12:03;;;;;;;6.13;5.53;;;;;;;16.66;100.00;150225.38;5074706;28;20196;-61
2023/01/20 09:14:33;;;;;;;6.47;5.83;;;;;;;16.72;100.00;150240.59;5074843;28;20196;-63
2023/01/20 09:17:01;;;;;;;5.50;5.13;;;;;;;16.68;100.00;150229.16;5074266;28;20192;-60
2023/01/20 09:19:28;;;;;;;8.27;6.13;;;;;;;16.75;100.00;150248.25;5074706;28;20189;-61
2023/01/20 09:21:55;;;;;;;6.03;5.50;;;;;;;17.13;100.00;150342.25;5074432;28;20658;-62
2023/01/20 09:24:23;;;;;;;7.63;5.70;;;;;;;17.38;100.00;150405.75;5074506;28;20212;-62
2023/01/20 09:26:51;;;;;;;6.13;5.70;;;;;;;17.31;100.00;150388.00;5074698;28;20590;-62
2023/01/20 09:29:21;;;;;;;4.87;4.57;;;;;;;17.14;100.00;150346.03;5074120;28;20184;-63
2023/01/20 09:31:51;;;;;;;7.27;4.93;;;;;;;17.39;100.00;150407.03;5074276;28;20181;-62
2023/01/20 09:34:22;;;;;;;5.93;5.43;;;;;;;17.59;100.00;150457.91;5074298;28;20225;-62
2023/01/20 09:36:51;;;;;;;8.47;5.50;;;;;;;17.47;100.00;150427.38;5074048;28;20275;-62
2023/01/20 09:45:21;;;;;;;6.57;5.90;;;;;;;16.82;100.00;150266.00;5074031;28;20184;-62
2023/01/20 09:47:49;;;;;;;7.47;5.77;;;;;;;17.03;100.00;150316.81;5073970;28;20193;-61
2023/01/20 09:53:31;;;;;;;11.50;5.90;;;;;;;17.75;100.00;150499.84;5073998;28;20302;-62
2023/01/20 09:56:01;;;;;;;5.20;4.77;;;;;;;17.59;100.00;150457.91;5074082;28;20650;-61
2023/01/20 09:58:35;;;;;;;6.00;5.50;;;;;;;17.66;100.00;150476.97;5073834;28;20208;-63
2023/01/20 10:01:12;;;;;;;13.80;5.40;;;;;;;17.61;100.00;150463.00;5073218;28;20190;-62
2023/01/20 10:03:48;;;;;;;4.93;4.70;;;;;;;17.67;100.00;150479.50;5073856;28;20216;-61
2023/01/20 10:06:23;;;;;;;5.90;5.40;;;;;;;17.67;100.00;150479.50;5073941;28;20208;-66
2023/01/20 10:08:54;;;;;;;5.43;4.73;;;;;;;17.63;100.00;150469.34;5073704;28;20284;-62
2023/01/20 10:11:24;;;;;;;5.13;4.70;;;;;;;17.79;100.00;150510.00;5073776;28;20647;-62
2023/01/20 10:13:55;;;;;;;5.10;4.77;;;;;;;18.09;100.00;150585.00;5073424;28;20196;-62
2023/01/20 10:16:32;;;;;;;15.27;5.97;;;;;;;18.44;100.00;150671.47;5073232;28;20285;-62
2023/01/20 10:19:02;;;;;;;7.03;5.10;;;;;;;18.55;100.00;150700.75;5073290;28;20651;-61
2023/01/20 10:21:36;;;;;;;7.17;5.20;;;;;;;19.08;100.00;150833.06;5070642;28;20279;-63
2023/01/20 10:24:10;;;;;;;6.13;5.43;;;;;;;19.78;100.00;151008.72;5053054;28;20186;-62
2023/01/20 10:26:45;;;;;;;9.17;5.43;;;;;;;20.36;100.00;151156.47;5053021;28;20205;-63
2023/01/20 10:29:20;;;;;;;4.73;4.47;;;;;;;20.44;99.36;151176.84;5035506;28;20188;-62
2023/01/20 10:31:53;;;;;;;7.73;4.60;;;;;;;20.20;96.15;151115.66;5053468;28;20630;-63
2023/01/20 10:34:21;;;;;;;9.27;4.57;;;;;;;20.08;97.78;151085.09;5066585;28;20633;-62
2023/01/20 10:36:56;;;;;;;4.50;4.23;;;;;;;20.05;98.37;151078.75;5072743;28;20315;-62
2023/01/20 10:39:31;;;;;;;4.43;4.23;;;;;;;19.78;100.00;151010.00;5072660;28;20188;-62
2023/01/20 10:42:03;;;;;;;4.80;4.60;;;;;;;19.47;100.00;150931.09;5072793;28;20188;-62
2023/01/20 10:44:35;;;;;;;5.40;4.87;;;;;;;19.30;100.00;150889.06;5073149;28;20655;-62
2023/01/20 10:47:29;;;;;;;4.87;4.40;;;;;;;18.93;100.00;150796.16;5072829;28;20204;-63
2023/01/20 10:50:11;;;;;;;4.77;4.57;;;;;;;19.97;99.89;151058.38;5069508;28;20201;-62
2023/01/20 10:52:51;;;;;;;6.93;4.90;;;;;;;21.39;90.63;151416.38;5072906;28;20205;-63
2023/01/20 10:55:28;;;;;;;5.25;4.85;;;;;;;21.71;85.58;151495.41;5072883;28;20189;-64
2023/01/20 10:57:57;;;;;;;7.40;4.80;;;;;;;21.91;82.77;151545.09;5072909;28;20535;-62
2023/01/20 11:00:27;;;;;;;5.35;4.53;;;;;;;22.40;79.21;151668.84;5072666;28;20184;-63
2023/01/20 11:02:57;;;;;;;4.15;3.83;;;;;;;22.46;75.78;151684.13;5072298;28;20180;-63
2023/01/20 11:05:27;;;;;;;5.45;4.60;;;;;;;21.73;79.35;151500.47;5072500;28;20557;-62
2023/01/20 11:07:56;;;;;;;4.32;3.92;;;;;;;21.16;81.62;151356.50;5072527;28;20193;-62
2023/01/20 11:10:25;;;;;;;4.82;4.53;;;;;;;20.17;88.48;151108.03;5071926;28;20181;-62
2023/01/20 11:12:55;;;;;;;4.77;4.37;;;;;;;19.21;98.00;150864.88;5071770;28;20211;-62
2023/01/20 11:15:26;;;;;;;3.83;3.63;;;;;;;19.22;98.80;150867.44;5072260;28;20188;-63
2023/01/20 11:18:25;;;;;;;4.73;4.47;;;;;;;20.10;95.38;151090.22;5072278;28;20177;-62
2023/01/20 11:20:55;;;;;;;6.03;3.43;;;;;;;20.83;86.33;151273.66;5071868;28;20181;-63
2023/01/20 11:23:25;;;;;;;4.00;3.80;;;;;;;20.97;85.64;151310.56;5072208;28;20268;-64
2023/01/20 11:25:57;;;;;;;3.97;3.75;;;;;;;20.21;89.67;151118.22;5072118;28;20258;-62
2023/01/20 11:28:25;;;;;;;4.03;3.83;;;;;;;20.35;88.44;151153.91;5072214;28;20279;-62
2023/01/20 11:30:55;;;;;;;3.80;3.40;;;;;;;20.61;86.31;151217.59;5071628;28;20195;-62
2023/01/20 11:33:27;;;;;;;4.33;3.63;;;;;;;21.37;81.39;151410.00;5072170;28;20291;-63